KMMU/MMU METAR and TAF weather

Enter ICAO airport designator
Station Type Date Time Source
KMMU METAR 2019/12/14 16:45 UTC NOAA

KMMU 141645Z 06004KT 2 1/2SM BR OVC004 10/10 A2935


Station Type Date Time Source
KMMU Decoded METAR 2019/12/14 16:45 UTC NOAA

Morristown Municipal, NJ, United States (KMMU) 40-48N 074-25W
Dec 14, 2019 - 11:45 AM EST / 2019.12.14 1645 UTC
Wind: from the ENE (060 degrees) at 5 MPH (4 KT):0
Visibility: 2 1/2 mile(s):0
Sky conditions: overcast
Weather: mist
Temperature: 50 F (10 C)
Dew Point: 50 F (10 C)
Relative Humidity: 100%
Pressure (altimeter): 29.35 in. Hg (993 hPa)
ob: KMMU 141645Z 06004KT 2 1/2SM BR OVC004 10/10 A2935
cycle: 17

Station Type Date Time Source
KMMU TAF UTC NOAA

Error!

Example: see airport list